sensor_id;sensor_type;location;lat;lon;timestamp;temperature;humidity
11944;DHT22;6031;50.220;10.122;2023-06-14T00:00:13;15.80;1.00
11944;DHT22;6031;50.220;10.122;2023-06-14T00:02:40;15.70;1.00
11944;DHT22;6031;50.220;10.122;2023-06-14T00:05:06;15.70;1.00
11944;DHT22;6031;50.220;10.122;2023-06-14T00:07:35;15.60;1.00
11944;DHT22;6031;50.220;10.122;2023-06-14T00:10:02;15.60;1.00
11944;DHT22;6031;50.220;10.122;2023-06-14T00:12:28;15.70;1.00
11944;DHT22;6031;50.220;10.122;2023-06-14T00:14:54;15.60;1.00
11944;DHT22;6031;50.220;10.122;2023-06-14T00:17:19;15.50;1.00
11944;DHT22;6031;50.220;10.122;2023-06-14T00:19:46;15.20;1.00
11944;DHT22;6031;50.220;10.122;2023-06-14T00:22:11;14.90;1.00
11944;DHT22;6031;50.220;10.122;2023-06-14T00:24:37;14.70;1.00
11944;DHT22;6031;50.220;10.122;2023-06-14T00:27:03;14.50;1.00
11944;DHT22;6031;50.220;10.122;2023-06-14T00:29:28;14.30;1.00
11944;DHT22;6031;50.220;10.122;2023-06-14T00:31:54;14.10;1.00
11944;DHT22;6031;50.220;10.122;2023-06-14T00:34:19;14.00;1.00
11944;DHT22;6031;50.220;10.122;2023-06-14T00:36:45;14.00;1.00
11944;DHT22;6031;50.220;10.122;2023-06-14T00:39:10;14.00;1.00
11944;DHT22;6031;50.220;10.122;2023-06-14T00:41:37;14.00;1.00
11944;DHT22;6031;50.220;10.122;2023-06-14T00:44:03;13.90;1.00
11944;DHT22;6031;50.220;10.122;2023-06-14T00:46:28;13.90;1.00
11944;DHT22;6031;50.220;10.122;2023-06-14T00:48:56;13.90;1.00
11944;DHT22;6031;50.220;10.122;2023-06-14T00:51:23;13.90;1.00
11944;DHT22;6031;50.220;10.122;2023-06-14T00:53:50;13.90;1.00
11944;DHT22;6031;50.220;10.122;2023-06-14T00:56:16;13.90;1.00
11944;DHT22;6031;50.220;10.122;2023-06-14T00:58:42;13.80;1.00
11944;DHT22;6031;50.220;10.122;2023-06-14T01:01:08;13.80;1.00
11944;DHT22;6031;50.220;10.122;2023-06-14T01:03:34;13.70;1.00
11944;DHT22;6031;50.220;10.122;2023-06-14T01:06:09;13.60;13.50
11944;DHT22;6031;50.220;10.122;2023-06-14T01:08:55;13.50;56.90
11944;DHT22;6031;50.220;10.122;2023-06-14T01:11:26;13.50;90.10
11944;DHT22;6031;50.220;10.122;2023-06-14T01:13:54;13.60;70.70
11944;DHT22;6031;50.220;10.122;2023-06-14T01:16:20;13.60;95.10
11944;DHT22;6031;50.220;10.122;2023-06-14T01:18:46;13.50;99.90
11944;DHT22;6031;50.220;10.122;2023-06-14T01:21:26;13.30;99.90
11944;DHT22;6031;50.220;10.122;2023-06-14T01:23:53;13.40;99.90
11944;DHT22;6031;50.220;10.122;2023-06-14T01:26:21;13.30;99.90
11944;DHT22;6031;50.220;10.122;2023-06-14T01:28:48;13.30;99.90
11944;DHT22;6031;50.220;10.122;2023-06-14T01:31:17;13.30;99.90
11944;DHT22;6031;50.220;10.122;2023-06-14T01:33:45;13.30;99.90
11944;DHT22;6031;50.220;10.122;2023-06-14T01:36:11;13.30;99.90
11944;DHT22;6031;50.220;10.122;2023-06-14T01:38:37;13.20;99.90
11944;DHT22;6031;50.220;10.122;2023-06-14T01:41:04;13.20;99.90
11944;DHT22;6031;50.220;10.122;2023-06-14T01:43:30;13.40;99.90
11944;DHT22;6031;50.220;10.122;2023-06-14T01:45:57;13.50;99.90
11944;DHT22;6031;50.220;10.122;2023-06-14T01:48:23;13.50;99.90
11944;DHT22;6031;50.220;10.122;2023-06-14T01:50:49;13.30;99.90
11944;DHT22;6031;50.220;10.122;2023-06-14T01:53:15;13.10;99.90
11944;DHT22;6031;50.220;10.122;2023-06-14T01:55:41;12.90;99.90
11944;DHT22;6031;50.220;10.122;2023-06-14T01:58:10;12.80;99.90
11944;DHT22;6031;50.220;10.122;2023-06-14T02:00:35;12.60;99.90
11944;DHT22;6031;50.220;10.122;2023-06-14T02:03:01;12.50;1.00
11944;DHT22;6031;50.220;10.122;2023-06-14T02:05:29;12.50;1.00
11944;DHT22;6031;50.220;10.122;2023-06-14T02:07:55;12.50;1.00
11944;DHT22;6031;50.220;10.122;2023-06-14T02:10:21;12.40;1.00
11944;DHT22;6031;50.220;10.122;2023-06-14T02:12:46;12.40;1.00
11944;DHT22;6031;50.220;10.122;2023-06-14T02:15:12;12.50;1.00
11944;DHT22;6031;50.220;10.122;2023-06-14T02:17:42;12.40;1.00
11944;DHT22;6031;50.220;10.122;2023-06-14T02:20:08;12.30;1.00
11944;DHT22;6031;50.220;10.122;2023-06-14T02:22:34;12.20;1.00
11944;DHT22;6031;50.220;10.122;2023-06-14T02:25:00;12.00;37.10
11944;DHT22;6031;50.220;10.122;2023-06-14T02:27:26;12.00;10.00
11944;DHT22;6031;50.220;10.122;2023-06-14T02:29:51;12.00;72.00
11944;DHT22;6031;50.220;10.122;2023-06-14T02:32:17;12.00;95.90
11944;DHT22;6031;50.220;10.122;2023-06-14T02:34:42;12.00;99.90
11944;DHT22;6031;50.220;10.122;2023-06-14T02:37:07;12.00;99.70
11944;DHT22;6031;50.220;10.122;2023-06-14T02:39:33;12.20;1.00
11944;DHT22;6031;50.220;10.122;2023-06-14T02:41:59;12.30;1.00
11944;DHT22;6031;50.220;10.122;2023-06-14T02:44:25;12.30;1.00
11944;DHT22;6031;50.220;10.122;2023-06-14T02:46:55;12.40;1.00
11944;DHT22;6031;50.220;10.122;2023-06-14T02:49:21;12.50;1.00
11944;DHT22;6031;50.220;10.122;2023-06-14T02:51:47;12.50;1.00
11944;DHT22;6031;50.220;10.122;2023-06-14T02:54:12;12.30;1.00
11944;DHT22;6031;50.220;10.122;2023-06-14T02:56:38;12.30;1.00
11944;DHT22;6031;50.220;10.122;2023-06-14T02:59:03;12.20;1.00
11944;DHT22;6031;50.220;10.122;2023-06-14T03:01:29;12.30;1.00
11944;DHT22;6031;50.220;10.122;2023-06-14T03:04:01;12.40;1.00
11944;DHT22;6031;50.220;10.122;2023-06-14T03:06:28;12.50;1.00
11944;DHT22;6031;50.220;10.122;2023-06-14T03:08:59;12.50;1.00
11944;DHT22;6031;50.220;10.122;2023-06-14T03:11:25;12.50;1.00
11944;DHT22;6031;50.220;10.122;2023-06-14T03:13:51;12.60;1.00
11944;DHT22;6031;50.220;10.122;2023-06-14T03:16:17;12.60;1.00
11944;DHT22;6031;50.220;10.122;2023-06-14T03:18:48;12.70;1.00
11944;DHT22;6031;50.220;10.122;2023-06-14T03:21:13;12.60;1.00
11944;DHT22;6031;50.220;10.122;2023-06-14T03:23:41;12.60;1.00
11944;DHT22;6031;50.220;10.122;2023-06-14T03:26:07;12.70;99.90
11944;DHT22;6031;50.220;10.122;2023-06-14T03:28:33;12.70;99.90
11944;DHT22;6031;50.220;10.122;2023-06-14T03:30:59;12.80;99.90
11944;DHT22;6031;50.220;10.122;2023-06-14T03:33:25;12.90;99.90
11944;DHT22;6031;50.220;10.122;2023-06-14T03:35:51;12.90;99.90
11944;DHT22;6031;50.220;10.122;2023-06-14T03:38:17;12.90;99.90
11944;DHT22;6031;50.220;10.122;2023-06-14T03:40:42;12.90;99.90
11944;DHT22;6031;50.220;10.122;2023-06-14T03:43:09;12.90;99.90
11944;DHT22;6031;50.220;10.122;2023-06-14T03:45:35;12.90;99.90
11944;DHT22;6031;50.220;10.122;2023-06-14T03:48:01;12.90;99.90
11944;DHT22;6031;50.220;10.122;2023-06-14T03:50:26;12.90;99.90
11944;DHT22;6031;50.220;10.122;2023-06-14T03:52:52;13.00;99.90
11944;DHT22;6031;50.220;10.122;2023-06-14T03:55:18;13.20;99.90
11944;DHT22;6031;50.220;10.122;2023-06-14T03:57:44;13.10;99.90
11944;DHT22;6031;50.220;10.122;2023-06-14T04:00:10;13.20;99.90
11944;DHT22;6031;50.220;10.122;2023-06-14T04:02:37;13.20;99.90
11944;DHT22;6031;50.220;10.122;2023-06-14T04:05:03;13.30;99.90
11944;DHT22;6031;50.220;10.122;2023-06-14T04:07:28;13.30;99.90
11944;DHT22;6031;50.220;10.122;2023-06-14T04:09:54;13.40;99.90
11944;DHT22;6031;50.220;10.122;2023-06-14T04:12:20;13.40;99.90
11944;DHT22;6031;50.220;10.122;2023-06-14T04:14:46;13.40;99.90
11944;DHT22;6031;50.220;10.122;2023-06-14T04:17:12;13.40;99.90
11944;DHT22;6031;50.220;10.122;2023-06-14T04:19:37;13.50;99.90
11944;DHT22;6031;50.220;10.122;2023-06-14T04:22:03;13.60;99.90
11944;DHT22;6031;50.220;10.122;2023-06-14T04:24:29;13.70;99.90
11944;DHT22;6031;50.220;10.122;2023-06-14T04:27:00;13.80;99.90
11944;DHT22;6031;50.220;10.122;2023-06-14T04:29:26;13.90;37.60
11944;DHT22;6031;50.220;10.122;2023-06-14T04:31:55;14.10;40.30
11944;DHT22;6031;50.220;10.122;2023-06-14T04:34:27;14.10;20.80
11944;DHT22;6031;50.220;10.122;2023-06-14T04:36:59;14.20;19.40
11944;DHT22;6031;50.220;10.122;2023-06-14T04:39:26;14.20;2.30
11944;DHT22;6031;50.220;10.122;2023-06-14T04:41:53;14.30;1.00
11944;DHT22;6031;50.220;10.122;2023-06-14T04:44:23;14.30;1.00
11944;DHT22;6031;50.220;10.122;2023-06-14T04:46:49;14.30;1.00
11944;DHT22;6031;50.220;10.122;2023-06-14T04:49:15;14.50;1.00
11944;DHT22;6031;50.220;10.122;2023-06-14T04:51:42;14.50;1.00
11944;DHT22;6031;50.220;10.122;2023-06-14T04:54:09;14.60;1.00
11944;DHT22;6031;50.220;10.122;2023-06-14T04:56:43;14.60;1.00
11944;DHT22;6031;50.220;10.122;2023-06-14T04:59:10;14.70;1.00
11944;DHT22;6031;50.220;10.122;2023-06-14T05:01:40;14.70;1.00
11944;DHT22;6031;50.220;10.122;2023-06-14T05:04:06;14.80;1.00
11944;DHT22;6031;50.220;10.122;2023-06-14T05:06:31;14.90;1.00
11944;DHT22;6031;50.220;10.122;2023-06-14T05:08:57;15.00;1.00
11944;DHT22;6031;50.220;10.122;2023-06-14T05:11:22;15.00;1.00
11944;DHT22;6031;50.220;10.122;2023-06-14T05:13:49;15.20;1.00
11944;DHT22;6031;50.220;10.122;2023-06-14T05:16:15;15.20;1.00
11944;DHT22;6031;50.220;10.122;2023-06-14T05:18:42;15.30;1.00
11944;DHT22;6031;50.220;10.122;2023-06-14T05:21:07;15.50;1.00
11944;DHT22;6031;50.220;10.122;2023-06-14T05:23:34;15.30;1.00
11944;DHT22;6031;50.220;10.122;2023-06-14T05:25:59;15.30;1.00
11944;DHT22;6031;50.220;10.122;2023-06-14T05:28:28;15.50;1.00
11944;DHT22;6031;50.220;10.122;2023-06-14T05:30:53;15.60;1.00
11944;DHT22;6031;50.220;10.122;2023-06-14T05:33:18;15.80;1.00
11944;DHT22;6031;50.220;10.122;2023-06-14T05:35:44;15.90;1.00
11944;DHT22;6031;50.220;10.122;2023-06-14T05:38:10;15.90;1.00
11944;DHT22;6031;50.220;10.122;2023-06-14T05:40:35;15.90;1.00
11944;DHT22;6031;50.220;10.122;2023-06-14T05:43:01;16.10;1.00
11944;DHT22;6031;50.220;10.122;2023-06-14T05:45:26;16.20;1.00
11944;DHT22;6031;50.220;10.122;2023-06-14T05:47:52;16.30;1.00
11944;DHT22;6031;50.220;10.122;2023-06-14T05:50:20;16.50;1.00
11944;DHT22;6031;50.220;10.122;2023-06-14T05:52:45;16.70;1.00
11944;DHT22;6031;50.220;10.122;2023-06-14T05:55:11;16.70;1.00
11944;DHT22;6031;50.220;10.122;2023-06-14T05:57:37;16.70;1.00
11944;DHT22;6031;50.220;10.122;2023-06-14T06:00:03;16.90;1.00
11944;DHT22;6031;50.220;10.122;2023-06-14T06:02:40;17.10;1.00
11944;DHT22;6031;50.220;10.122;2023-06-14T06:05:08;17.90;1.00
11944;DHT22;6031;50.220;10.122;2023-06-14T06:07:34;18.60;1.00
11944;DHT22;6031;50.220;10.122;2023-06-14T06:09:59;19.40;1.00
11944;DHT22;6031;50.220;10.122;2023-06-14T06:12:25;19.60;1.00
11944;DHT22;6031;50.220;10.122;2023-06-14T06:14:50;20.00;1.00
11944;DHT22;6031;50.220;10.122;2023-06-14T06:17:16;20.50;1.00
11944;DHT22;6031;50.220;10.122;2023-06-14T06:19:41;20.40;1.00
11944;DHT22;6031;50.220;10.122;2023-06-14T06:22:07;20.30;1.00
11944;DHT22;6031;50.220;10.122;2023-06-14T06:24:33;20.60;1.00
11944;DHT22;6031;50.220;10.122;2023-06-14T06:26:58;21.30;1.00
11944;DHT22;6031;50.220;10.122;2023-06-14T06:29:24;21.40;99.90
11944;DHT22;6031;50.220;10.122;2023-06-14T06:31:49;21.70;99.90
11944;DHT22;6031;50.220;10.122;2023-06-14T06:34:15;22.00;99.90
11944;DHT22;6031;50.220;10.122;2023-06-14T06:36:40;21.10;99.90
11944;DHT22;6031;50.220;10.122;2023-06-14T06:39:07;20.90;99.90
11944;DHT22;6031;50.220;10.122;2023-06-14T06:41:39;21.30;99.90
11944;DHT22;6031;50.220;10.122;2023-06-14T06:44:06;21.10;99.90
11944;DHT22;6031;50.220;10.122;2023-06-14T06:46:32;21.70;99.90
11944;DHT22;6031;50.220;10.122;2023-06-14T06:48:57;22.60;99.90
11944;DHT22;6031;50.220;10.122;2023-06-14T06:51:23;23.10;99.90
11944;DHT22;6031;50.220;10.122;2023-06-14T06:53:53;23.10;99.90
11944;DHT22;6031;50.220;10.122;2023-06-14T06:56:19;23.10;99.90
11944;DHT22;6031;50.220;10.122;2023-06-14T06:58:45;23.20;99.90
11944;DHT22;6031;50.220;10.122;2023-06-14T07:01:10;24.00;99.90
11944;DHT22;6031;50.220;10.122;2023-06-14T07:03:37;23.50;99.90
11944;DHT22;6031;50.220;10.122;2023-06-14T07:06:02;23.80;99.90
11944;DHT22;6031;50.220;10.122;2023-06-14T07:08:28;23.80;99.90
11944;DHT22;6031;50.220;10.122;2023-06-14T07:10:53;23.20;99.90
11944;DHT22;6031;50.220;10.122;2023-06-14T07:13:19;22.90;99.90
11944;DHT22;6031;50.220;10.122;2023-06-14T07:15:44;23.00;99.90
11944;DHT22;6031;50.220;10.122;2023-06-14T07:18:10;22.60;99.90
11944;DHT22;6031;50.220;10.122;2023-06-14T07:20:35;23.40;99.90
11944;DHT22;6031;50.220;10.122;2023-06-14T07:23:03;24.10;99.90
11944;DHT22;6031;50.220;10.122;2023-06-14T07:25:29;23.50;99.90
11944;DHT22;6031;50.220;10.122;2023-06-14T07:27:54;23.80;99.90
11944;DHT22;6031;50.220;10.122;2023-06-14T07:30:20;23.40;99.90
11944;DHT22;6031;50.220;10.122;2023-06-14T07:32:46;23.70;99.90
11944;DHT22;6031;50.220;10.122;2023-06-14T07:35:11;24.60;99.90
11944;DHT22;6031;50.220;10.122;2023-06-14T07:37:37;24.90;99.90
11944;DHT22;6031;50.220;10.122;2023-06-14T07:40:03;25.10;99.90
11944;DHT22;6031;50.220;10.122;2023-06-14T07:42:35;24.80;99.90
11944;DHT22;6031;50.220;10.122;2023-06-14T07:45:02;24.20;99.90
11944;DHT22;6031;50.220;10.122;2023-06-14T07:47:27;24.30;99.90
11944;DHT22;6031;50.220;10.122;2023-06-14T07:49:53;25.00;99.90
11944;DHT22;6031;50.220;10.122;2023-06-14T07:52:18;24.90;99.90
11944;DHT22;6031;50.220;10.122;2023-06-14T07:54:44;25.40;99.90
11944;DHT22;6031;50.220;10.122;2023-06-14T07:57:09;26.10;99.90
11944;DHT22;6031;50.220;10.122;2023-06-14T07:59:35;25.70;99.90
11944;DHT22;6031;50.220;10.122;2023-06-14T08:02:01;25.50;99.90
11944;DHT22;6031;50.220;10.122;2023-06-14T08:04:26;25.90;99.90
11944;DHT22;6031;50.220;10.122;2023-06-14T08:06:52;25.40;99.90
11944;DHT22;6031;50.220;10.122;2023-06-14T08:09:17;25.70;99.90
11944;DHT22;6031;50.220;10.122;2023-06-14T08:11:43;26.80;99.90
11944;DHT22;6031;50.220;10.122;2023-06-14T08:14:08;26.60;99.90
11944;DHT22;6031;50.220;10.122;2023-06-14T08:16:34;25.90;99.90
11944;DHT22;6031;50.220;10.122;2023-06-14T08:19:00;26.20;99.90
11944;DHT22;6031;50.220;10.122;2023-06-14T08:21:26;26.40;99.90
11944;DHT22;6031;50.220;10.122;2023-06-14T08:23:57;26.80;99.90
11944;DHT22;6031;50.220;10.122;2023-06-14T08:26:23;27.20;99.90
11944;DHT22;6031;50.220;10.122;2023-06-14T08:28:48;26.20;99.90
11944;DHT22;6031;50.220;10.122;2023-06-14T08:31:14;24.90;99.90
11944;DHT22;6031;50.220;10.122;2023-06-14T08:33:39;25.60;99.90
11944;DHT22;6031;50.220;10.122;2023-06-14T08:36:08;26.00;99.90
11944;DHT22;6031;50.220;10.122;2023-06-14T08:38:34;26.70;99.90
11944;DHT22;6031;50.220;10.122;2023-06-14T08:41:01;27.90;99.90
11944;DHT22;6031;50.220;10.122;2023-06-14T08:43:27;27.80;99.90
11944;DHT22;6031;50.220;10.122;2023-06-14T08:45:59;26.40;99.90
11944;DHT22;6031;50.220;10.122;2023-06-14T08:48:26;24.50;99.90
11944;DHT22;6031;50.220;10.122;2023-06-14T08:50:57;23.30;99.90
11944;DHT22;6031;50.220;10.122;2023-06-14T08:53:28;22.40;99.90
11944;DHT22;6031;50.220;10.122;2023-06-14T08:55:58;22.10;99.90
11944;DHT22;6031;50.220;10.122;2023-06-14T08:58:25;22.60;99.90
11944;DHT22;6031;50.220;10.122;2023-06-14T09:00:51;23.40;99.90
11944;DHT22;6031;50.220;10.122;2023-06-14T09:03:18;24.60;99.90
11944;DHT22;6031;50.220;10.122;2023-06-14T09:05:46;23.90;99.90
11944;DHT22;6031;50.220;10.122;2023-06-14T09:08:12;22.90;99.90
11944;DHT22;6031;50.220;10.122;2023-06-14T09:10:40;24.20;99.90
11944;DHT22;6031;50.220;10.122;2023-06-14T09:13:06;25.70;99.90
11944;DHT22;6031;50.220;10.122;2023-06-14T09:15:33;25.40;99.90
11944;DHT22;6031;50.220;10.122;2023-06-14T09:18:01;25.40;99.90
11944;DHT22;6031;50.220;10.122;2023-06-14T09:20:29;26.60;99.90
11944;DHT22;6031;50.220;10.122;2023-06-14T09:22:55;28.30;99.90
11944;DHT22;6031;50.220;10.122;2023-06-14T09:25:21;29.00;99.90
11944;DHT22;6031;50.220;10.122;2023-06-14T09:27:48;28.10;99.90
11944;DHT22;6031;50.220;10.122;2023-06-14T09:30:13;25.60;99.90
11944;DHT22;6031;50.220;10.122;2023-06-14T09:32:39;24.20;99.90
11944;DHT22;6031;50.220;10.122;2023-06-14T09:35:08;25.30;99.90
11944;DHT22;6031;50.220;10.122;2023-06-14T09:37:35;26.70;99.90
11944;DHT22;6031;50.220;10.122;2023-06-14T09:40:01;28.00;99.90
11944;DHT22;6031;50.220;10.122;2023-06-14T09:42:28;27.70;99.90
11944;DHT22;6031;50.220;10.122;2023-06-14T09:44:55;28.30;99.90
11944;DHT22;6031;50.220;10.122;2023-06-14T09:47:24;28.60;99.90
11944;DHT22;6031;50.220;10.122;2023-06-14T09:49:51;26.80;99.90
11944;DHT22;6031;50.220;10.122;2023-06-14T09:52:18;27.60;99.90
11944;DHT22;6031;50.220;10.122;2023-06-14T09:54:45;27.50;99.90
11944;DHT22;6031;50.220;10.122;2023-06-14T09:57:13;26.40;99.90
11944;DHT22;6031;50.220;10.122;2023-06-14T09:59:44;26.50;99.90
11944;DHT22;6031;50.220;10.122;2023-06-14T10:02:34;25.90;99.90
11944;DHT22;6031;50.220;10.122;2023-06-14T10:05:03;25.70;99.90
11944;DHT22;6031;50.220;10.122;2023-06-14T10:07:39;25.70;99.90
11944;DHT22;6031;50.220;10.122;2023-06-14T10:10:06;27.00;99.90
11944;DHT22;6031;50.220;10.122;2023-06-14T10:12:32;27.20;99.90
11944;DHT22;6031;50.220;10.122;2023-06-14T10:14:58;28.10;99.90
11944;DHT22;6031;50.220;10.122;2023-06-14T10:17:33;28.10;99.90
11944;DHT22;6031;50.220;10.122;2023-06-14T10:23:22;27.30;99.90
11944;DHT22;6031;50.220;10.122;2023-06-14T10:25:57;26.00;99.90
11944;DHT22;6031;50.220;10.122;2023-06-14T10:28:23;25.80;99.90
11944;DHT22;6031;50.220;10.122;2023-06-14T10:31:05;24.90;99.90
11944;DHT22;6031;50.220;10.122;2023-06-14T10:33:33;24.50;99.90
11944;DHT22;6031;50.220;10.122;2023-06-14T10:36:24;24.20;99.90
11944;DHT22;6031;50.220;10.122;2023-06-14T10:39:19;23.80;99.90
11944;DHT22;6031;50.220;10.122;2023-06-14T10:41:55;24.50;99.90
11944;DHT22;6031;50.220;10.122;2023-06-14T10:46:47;27.60;99.90
11944;DHT22;6031;50.220;10.122;2023-06-14T10:49:16;26.50;99.90
11944;DHT22;6031;50.220;10.122;2023-06-14T10:51:46;26.70;99.90
11944;DHT22;6031;50.220;10.122;2023-06-14T10:54:16;26.10;99.90
11944;DHT22;6031;50.220;10.122;2023-06-14T10:56:48;25.80;99.90
11944;DHT22;6031;50.220;10.122;2023-06-14T10:59:15;27.70;99.90
11944;DHT22;6031;50.220;10.122;2023-06-14T11:04:17;31.40;99.90
11944;DHT22;6031;50.220;10.122;2023-06-14T11:06:50;30.30;99.90
11944;DHT22;6031;50.220;10.122;2023-06-14T11:12:10;27.40;99.90
11944;DHT22;6031;50.220;10.122;2023-06-14T11:14:38;26.20;99.90
11944;DHT22;6031;50.220;10.122;2023-06-14T11:17:03;25.70;99.90
11944;DHT22;6031;50.220;10.122;2023-06-14T11:19:29;25.60;99.90
11944;DHT22;6031;50.220;10.122;2023-06-14T11:21:55;26.70;99.90
11944;DHT22;6031;50.220;10.122;2023-06-14T11:24:21;28.60;99.90
11944;DHT22;6031;50.220;10.122;2023-06-14T11:26:47;30.30;99.90
11944;DHT22;6031;50.220;10.122;2023-06-14T11:29:14;30.50;99.90
11944;DHT22;6031;50.220;10.122;2023-06-14T11:31:43;29.50;99.90
11944;DHT22;6031;50.220;10.122;2023-06-14T11:34:10;28.20;99.90
11944;DHT22;6031;50.220;10.122;2023-06-14T11:36:35;28.10;99.90
11944;DHT22;6031;50.220;10.122;2023-06-14T11:39:03;27.00;99.90
11944;DHT22;6031;50.220;10.122;2023-06-14T11:41:38;26.30;99.90
11944;DHT22;6031;50.220;10.122;2023-06-14T11:44:05;27.40;99.90
11944;DHT22;6031;50.220;10.122;2023-06-14T11:46:31;27.20;99.90
11944;DHT22;6031;50.220;10.122;2023-06-14T11:48:56;26.20;99.90
11944;DHT22;6031;50.220;10.122;2023-06-14T11:51:22;25.50;99.90
11944;DHT22;6031;50.220;10.122;2023-06-14T11:53:48;25.70;99.90
11944;DHT22;6031;50.220;10.122;2023-06-14T11:56:14;25.60;99.90
11944;DHT22;6031;50.220;10.122;2023-06-14T11:58:39;27.30;99.90
11944;DHT22;6031;50.220;10.122;2023-06-14T12:01:05;27.60;99.90
11944;DHT22;6031;50.220;10.122;2023-06-14T12:03:31;26.60;99.90
11944;DHT22;6031;50.220;10.122;2023-06-14T12:06:06;25.90;99.90
11944;DHT22;6031;50.220;10.122;2023-06-14T12:08:36;25.70;99.90
11944;DHT22;6031;50.220;10.122;2023-06-14T12:11:12;26.20;99.90
11944;DHT22;6031;50.220;10.122;2023-06-14T12:13:39;27.00;99.90
11944;DHT22;6031;50.220;10.122;2023-06-14T12:16:11;28.60;99.90
11944;DHT22;6031;50.220;10.122;2023-06-14T12:18:39;27.80;99.90
11944;DHT22;6031;50.220;10.122;2023-06-14T12:21:07;27.30;99.90
11944;DHT22;6031;50.220;10.122;2023-06-14T12:23:42;26.10;99.90
11944;DHT22;6031;50.220;10.122;2023-06-14T12:26:08;25.70;99.90
11944;DHT22;6031;50.220;10.122;2023-06-14T12:28:34;26.40;99.90
11944;DHT22;6031;50.220;10.122;2023-06-14T12:30:59;27.00;99.90
11944;DHT22;6031;50.220;10.122;2023-06-14T12:33:25;26.70;99.90
11944;DHT22;6031;50.220;10.122;2023-06-14T12:35:53;26.30;99.90
11944;DHT22;6031;50.220;10.122;2023-06-14T12:38:20;26.40;99.90
11944;DHT22;6031;50.220;10.122;2023-06-14T12:40:46;27.90;99.90
11944;DHT22;6031;50.220;10.122;2023-06-14T12:43:12;28.40;99.90
11944;DHT22;6031;50.220;10.122;2023-06-14T12:45:37;28.50;99.90
11944;DHT22;6031;50.220;10.122;2023-06-14T12:48:03;27.70;99.90
11944;DHT22;6031;50.220;10.122;2023-06-14T12:50:29;28.00;99.90
11944;DHT22;6031;50.220;10.122;2023-06-14T12:52:54;27.30;99.90
11944;DHT22;6031;50.220;10.122;2023-06-14T12:55:20;26.70;99.90
11944;DHT22;6031;50.220;10.122;2023-06-14T12:57:45;26.30;99.90
11944;DHT22;6031;50.220;10.122;2023-06-14T13:00:11;26.00;99.90
11944;DHT22;6031;50.220;10.122;2023-06-14T13:02:38;26.00;99.90
11944;DHT22;6031;50.220;10.122;2023-06-14T13:05:04;25.90;99.90
11944;DHT22;6031;50.220;10.122;2023-06-14T13:07:29;25.50;99.90
11944;DHT22;6031;50.220;10.122;2023-06-14T13:09:55;25.70;99.90
11944;DHT22;6031;50.220;10.122;2023-06-14T13:12:21;26.00;99.90
11944;DHT22;6031;50.220;10.122;2023-06-14T13:14:46;25.90;99.90
11944;DHT22;6031;50.220;10.122;2023-06-14T13:17:12;25.90;99.90
11944;DHT22;6031;50.220;10.122;2023-06-14T13:19:37;25.70;99.90
11944;DHT22;6031;50.220;10.122;2023-06-14T13:22:03;25.60;99.90
11944;DHT22;6031;50.220;10.122;2023-06-14T13:24:29;25.80;99.90
11944;DHT22;6031;50.220;10.122;2023-06-14T13:26:56;25.90;99.90
11944;DHT22;6031;50.220;10.122;2023-06-14T13:29:23;26.20;99.90
11944;DHT22;6031;50.220;10.122;2023-06-14T13:31:49;26.90;99.90
11944;DHT22;6031;50.220;10.122;2023-06-14T13:34:14;27.90;99.90
11944;DHT22;6031;50.220;10.122;2023-06-14T13:36:40;28.60;99.90
11944;DHT22;6031;50.220;10.122;2023-06-14T13:39:05;28.90;99.90
11944;DHT22;6031;50.220;10.122;2023-06-14T13:41:31;29.70;99.90
11944;DHT22;6031;50.220;10.122;2023-06-14T13:43:59;29.50;99.90
11944;DHT22;6031;50.220;10.122;2023-06-14T13:46:25;28.90;99.90
11944;DHT22;6031;50.220;10.122;2023-06-14T13:48:51;28.20;99.90
11944;DHT22;6031;50.220;10.122;2023-06-14T13:51:17;27.50;99.90
11944;DHT22;6031;50.220;10.122;2023-06-14T13:53:46;27.50;99.90
11944;DHT22;6031;50.220;10.122;2023-06-14T13:56:12;26.70;99.90
11944;DHT22;6031;50.220;10.122;2023-06-14T13:58:38;27.10;99.90
11944;DHT22;6031;50.220;10.122;2023-06-14T14:01:03;27.30;99.90
11944;DHT22;6031;50.220;10.122;2023-06-14T14:03:29;27.00;99.90
11944;DHT22;6031;50.220;10.122;2023-06-14T14:05:54;26.80;99.90
11944;DHT22;6031;50.220;10.122;2023-06-14T14:08:20;26.60;99.90
11944;DHT22;6031;50.220;10.122;2023-06-14T14:10:45;26.30;99.90
11944;DHT22;6031;50.220;10.122;2023-06-14T14:13:13;26.00;99.90
11944;DHT22;6031;50.220;10.122;2023-06-14T14:15:38;25.90;99.90
11944;DHT22;6031;50.220;10.122;2023-06-14T14:18:04;25.80;99.90
11944;DHT22;6031;50.220;10.122;2023-06-14T14:20:30;26.10;99.90
11944;DHT22;6031;50.220;10.122;2023-06-14T14:22:56;26.20;99.90
11944;DHT22;6031;50.220;10.122;2023-06-14T14:25:22;26.50;99.90
11944;DHT22;6031;50.220;10.122;2023-06-14T14:27:47;26.90;99.90
11944;DHT22;6031;50.220;10.122;2023-06-14T14:30:13;27.80;99.90
11944;DHT22;6031;50.220;10.122;2023-06-14T14:32:40;28.10;99.90
11944;DHT22;6031;50.220;10.122;2023-06-14T14:35:06;27.60;99.90
11944;DHT22;6031;50.220;10.122;2023-06-14T14:37:32;26.90;99.90
11944;DHT22;6031;50.220;10.122;2023-06-14T14:39:57;26.80;99.90
11944;DHT22;6031;50.220;10.122;2023-06-14T14:42:23;27.10;99.90
11944;DHT22;6031;50.220;10.122;2023-06-14T14:44:48;27.90;99.90
11944;DHT22;6031;50.220;10.122;2023-06-14T14:47:14;28.20;99.90
11944;DHT22;6031;50.220;10.122;2023-06-14T14:49:39;28.30;99.90
11944;DHT22;6031;50.220;10.122;2023-06-14T14:52:05;27.70;99.90
11944;DHT22;6031;50.220;10.122;2023-06-14T14:54:31;27.80;99.90
11944;DHT22;6031;50.220;10.122;2023-06-14T14:56:56;27.90;99.90
11944;DHT22;6031;50.220;10.122;2023-06-14T14:59:22;27.80;99.90
11944;DHT22;6031;50.220;10.122;2023-06-14T15:01:48;28.40;99.90
11944;DHT22;6031;50.220;10.122;2023-06-14T15:04:13;28.40;99.90
11944;DHT22;6031;50.220;10.122;2023-06-14T15:06:38;28.20;99.90
11944;DHT22;6031;50.220;10.122;2023-06-14T15:09:05;27.30;99.90
11944;DHT22;6031;50.220;10.122;2023-06-14T15:11:31;26.30;99.90
11944;DHT22;6031;50.220;10.122;2023-06-14T15:13:56;26.00;99.90
11944;DHT22;6031;50.220;10.122;2023-06-14T15:16:22;25.50;99.90
11944;DHT22;6031;50.220;10.122;2023-06-14T15:18:47;25.50;99.90
11944;DHT22;6031;50.220;10.122;2023-06-14T15:21:13;25.40;99.90
11944;DHT22;6031;50.220;10.122;2023-06-14T15:23:38;24.60;99.90
11944;DHT22;6031;50.220;10.122;2023-06-14T15:26:04;24.80;99.90
11944;DHT22;6031;50.220;10.122;2023-06-14T15:28:30;24.90;99.90
11944;DHT22;6031;50.220;10.122;2023-06-14T15:30:58;24.60;99.90
11944;DHT22;6031;50.220;10.122;2023-06-14T15:33:23;24.60;99.90
11944;DHT22;6031;50.220;10.122;2023-06-14T15:35:49;24.90;99.90
11944;DHT22;6031;50.220;10.122;2023-06-14T15:38:15;25.60;99.90
11944;DHT22;6031;50.220;10.122;2023-06-14T15:40:40;26.30;99.90
11944;DHT22;6031;50.220;10.122;2023-06-14T15:43:06;26.70;99.90